Nord Glory — 3FIA5 — position and weather

sailwx.info

Track history (hours):
 
Tides and Currents Weather Stations Pressure Air Temp Water Temp Dewpoint Dewpoint Depression Visibility Wind Speed Wind Dir Waves Ship Positions

Nord Glory

Last reported at 2016-May-28 19:05 UTC. Time now 2016-May-30 22:20 UTC.
Position N 27°20' W 014°23'.

Length 190 m; draft 6.1 m.

Type: Cargo ship. MMSI: 354206000.

Date/timePositionNaut miles runAvg speedWind from/ knotsBaromVisibWave heightAir tempDewpointWater temp
2016-May-28 19:05N 27°20' W 014°23'813.7
2016-May-28 18:32N 27°25' W 014°17'5813.9
2016-May-28 14:21N 28°04' W 013°29'4014.2
2016-May-28 11:33N 28°38' W 013°05'1414.2
2016-May-28 10:33N 28°50' W 012°56'58513.3
2016-May-26 14:33N 37°10' W 006°55'0 0.0
2016-May-25 18:06N 37°11' W 006°56'0 0.0
2016-May-25 17:30N 37°11' W 006°56'0 0.0
2016-May-24 09:20N 37°11' W 006°56'0 0.0
2016-May-24 08:33N 37°11' W 006°56'0 0.0
2016-May-24 07:33N 37°11' W 006°56'0 0.0
2016-May-24 06:32N 37°11' W 006°56'0 0.0
2016-May-24 05:32N 37°11' W 006°56'0 0.0
2016-May-24 04:29N 37°11' W 006°56'0 0.0
2016-May-24 03:33N 37°11' W 006°56'0 0.0
2016-May-24 02:29N 37°11' W 006°56'0 0.0
2016-May-24 01:32N 37°11' W 006°56'0 0.0
2016-May-24 00:23N 37°11' W 006°56'0 0.0
2016-May-23 23:33N 37°11' W 006°56'1 0.8
2016-May-23 22:33N 37°10' W 006°55'8 7.7
2016-May-23 21:28N 37°03' W 006°49'2 2.5
2016-May-23 20:33N 37°05' W 006°51'0 0.1
2016-May-23 19:24N 37°05' W 006°51'0 0.0
2016-May-23 17:18N 37°05' W 006°51'0 0.0
2016-May-23 16:33N 37°05' W 006°51'0 0.0
2016-May-23 15:33N 37°05' W 006°51'0 0.0
2016-May-23 14:24N 37°05' W 006°51'0 0.0
2016-May-23 13:15N 37°05' W 006°51'0 0.0
2016-May-23 12:27N 37°05' W 006°51'0 0.0
2016-May-23 11:27N 37°05' W 006°51'1 0.6
2016-May-23 09:24N 37°04' W 006°52'6 6.8
2016-May-23 08:33N 36°59' W 006°56'4 0.9
2016-May-23 04:33N 36°56' W 006°55'0 0.0
2016-May-23 03:33N 36°56' W 006°55'0 0.0
2016-May-23 02:33N 36°56' W 006°55'0 0.0
2016-May-23 01:33N 36°56' W 006°55'0 0.0
2016-May-23 00:27N 36°56' W 006°55'  
2016-May-20 19:22N 36°38' W 008°26'1113.0
2016-May-20 18:32N 36°35' W 008°39'1612.7
2016-May-20 17:16N 36°30' W 008°58'1012.9
2016-May-20 16:31N 36°31' W 009°10'1612.6
2016-May-20 15:14N 36°41' W 009°27'913.3
2016-May-20 14:33N 36°48' W 009°33'1313.3
2016-May-20 13:33N 37°02' W 009°36'1413.6
2016-May-20 12:33N 37°15' W 009°34'1413.7
2016-May-20 11:33N 37°29' W 009°32'1313.5
2016-May-20 10:33N 37°42' W 009°30'1413.6
2016-May-20 09:33N 37°55' W 009°28'1413.6
2016-May-20 08:33N 38°09' W 009°26'1413.5
2016-May-20 07:33N 38°23' W 009°25'8 8.0
2016-May-20 06:34N 38°30' W 009°25'1 1.2
2016-May-20 05:33N 38°32' W 009°25'1 1.1
2016-May-20 04:34N 38°33' W 009°25'1 0.9
2016-May-20 03:32N 38°33' W 009°26'1 1.5
2016-May-20 02:32N 38°33' W 009°28'1 1.2
2016-May-20 01:34N 38°33' W 009°30'7 6.8
2016-May-20 00:33N 38°26' W 009°33'2 2.4
2016-May-19 23:31N 38°29' W 009°32'2 2.1
2016-May-19 22:31N 38°31' W 009°32'3 2.6
2016-May-19 21:30N 38°33' W 009°30'3 2.9
2016-May-19 20:33N 38°34' W 009°27'5 4.4
2016-May-19 19:30N 38°32' W 009°22'1 1.6
2016-May-19 18:33N 38°33' W 009°23'2 1.8
2016-May-19 17:33N 38°34' W 009°25'4 3.7
2016-May-19 16:33N 38°30' W 009°23'2 2.2
2016-May-19 15:32N 38°28' W 009°22'2 2.2
2016-May-19 14:33N 38°29' W 009°24'3 2.7
2016-May-19 13:33N 38°30' W 009°27'1 1.2
2016-May-19 12:34N 38°31' W 009°28'5 4.4
2016-May-19 11:31N 38°30' W 009°22'2 1.7
2016-May-19 10:31N 38°31' W 009°24'2 1.9
2016-May-19 09:31N 38°32' W 009°26'2 2.3
2016-May-19 08:33N 38°33' W 009°29'6 6.3
2016-May-19 07:33N 38°28' W 009°33'2 2.4
2016-May-19 06:33N 38°30' W 009°33'3 2.8
2016-May-19 05:33N 38°33' W 009°31'3 2.7
2016-May-19 04:33N 38°33' W 009°28'7 7.3
2016-May-19 03:33N 38°29' W 009°21'1 1.0
2016-May-19 02:33N 38°29' W 009°22'2 1.6
2016-May-19 01:33N 38°30' W 009°24'2 1.5
2016-May-19 00:33N 38°31' W 009°25'3 2.9
2016-May-18 23:33N 38°30' W 009°29'5 5.3
2016-May-18 22:33N 38°25' W 009°32'3 2.6
2016-May-18 21:31N 38°28' W 009°32'3 2.7
2016-May-18 20:33N 38°30' W 009°31'4 4.5
2016-May-18 19:33N 38°28' W 009°26'  
Track history (hours):
 
Tides and Currents Weather Stations Pressure Air Temp Water Temp Dewpoint Dewpoint Depression Visibility Wind Speed Wind Dir Waves Ship Positions

Nord Glory

Last reported at 2016-May-28 19:05 UTC. Time now 2016-May-30 22:20 UTC.
Position N 27°20' W 014°23'.

Length 190 m; draft 6.1 m.

Type: Cargo ship. MMSI: 354206000.

Date/timePositionNaut miles runAvg speedWind from/ knotsBaromVisibWave heightAir tempDewpointWater temp
2016-May-28 19:05N 27°20' W 014°23'813.7
2016-May-28 18:32N 27°25' W 014°17'5813.9
2016-May-28 14:21N 28°04' W 013°29'4014.2
2016-May-28 11:33N 28°38' W 013°05'1414.2
2016-May-28 10:33N 28°50' W 012°56'58513.3
2016-May-26 14:33N 37°10' W 006°55'0 0.0
2016-May-25 18:06N 37°11' W 006°56'0 0.0
2016-May-25 17:30N 37°11' W 006°56'0 0.0
2016-May-24 09:20N 37°11' W 006°56'0 0.0
2016-May-24 08:33N 37°11' W 006°56'0 0.0
2016-May-24 07:33N 37°11' W 006°56'0 0.0
2016-May-24 06:32N 37°11' W 006°56'0 0.0
2016-May-24 05:32N 37°11' W 006°56'0 0.0
2016-May-24 04:29N 37°11' W 006°56'0 0.0
2016-May-24 03:33N 37°11' W 006°56'0 0.0
2016-May-24 02:29N 37°11' W 006°56'0 0.0
2016-May-24 01:32N 37°11' W 006°56'0 0.0
2016-May-24 00:23N 37°11' W 006°56'0 0.0
2016-May-23 23:33N 37°11' W 006°56'1 0.8
2016-May-23 22:33N 37°10' W 006°55'8 7.7
2016-May-23 21:28N 37°03' W 006°49'2 2.5
2016-May-23 20:33N 37°05' W 006°51'0 0.1
2016-May-23 19:24N 37°05' W 006°51'0 0.0
2016-May-23 17:18N 37°05' W 006°51'0 0.0
2016-May-23 16:33N 37°05' W 006°51'0 0.0
2016-May-23 15:33N 37°05' W 006°51'0 0.0
2016-May-23 14:24N 37°05' W 006°51'0 0.0
2016-May-23 13:15N 37°05' W 006°51'0 0.0
2016-May-23 12:27N 37°05' W 006°51'0 0.0
2016-May-23 11:27N 37°05' W 006°51'1 0.6
2016-May-23 09:24N 37°04' W 006°52'6 6.8
2016-May-23 08:33N 36°59' W 006°56'4 0.9
2016-May-23 04:33N 36°56' W 006°55'0 0.0
2016-May-23 03:33N 36°56' W 006°55'0 0.0
2016-May-23 02:33N 36°56' W 006°55'0 0.0
2016-May-23 01:33N 36°56' W 006°55'0 0.0
2016-May-23 00:27N 36°56' W 006°55'  
2016-May-20 19:22N 36°38' W 008°26'1113.0
2016-May-20 18:32N 36°35' W 008°39'1612.7
2016-May-20 17:16N 36°30' W 008°58'1012.9
2016-May-20 16:31N 36°31' W 009°10'1612.6
2016-May-20 15:14N 36°41' W 009°27'913.3
2016-May-20 14:33N 36°48' W 009°33'1313.3
2016-May-20 13:33N 37°02' W 009°36'1413.6
2016-May-20 12:33N 37°15' W 009°34'1413.7
2016-May-20 11:33N 37°29' W 009°32'1313.5
2016-May-20 10:33N 37°42' W 009°30'1413.6
2016-May-20 09:33N 37°55' W 009°28'1413.6
2016-May-20 08:33N 38°09' W 009°26'1413.5
2016-May-20 07:33N 38°23' W 009°25'8 8.0
2016-May-20 06:34N 38°30' W 009°25'1 1.2
2016-May-20 05:33N 38°32' W 009°25'1 1.1
2016-May-20 04:34N 38°33' W 009°25'1 0.9
2016-May-20 03:32N 38°33' W 009°26'1 1.5
2016-May-20 02:32N 38°33' W 009°28'1 1.2
2016-May-20 01:34N 38°33' W 009°30'7 6.8
2016-May-20 00:33N 38°26' W 009°33'2 2.4
2016-May-19 23:31N 38°29' W 009°32'2 2.1
2016-May-19 22:31N 38°31' W 009°32'3 2.6
2016-May-19 21:30N 38°33' W 009°30'3 2.9
2016-May-19 20:33N 38°34' W 009°27'5 4.4
2016-May-19 19:30N 38°32' W 009°22'1 1.6
2016-May-19 18:33N 38°33' W 009°23'2 1.8
2016-May-19 17:33N 38°34' W 009°25'4 3.7
2016-May-19 16:33N 38°30' W 009°23'2 2.2
2016-May-19 15:32N 38°28' W 009°22'2 2.2
2016-May-19 14:33N 38°29' W 009°24'3 2.7
2016-May-19 13:33N 38°30' W 009°27'1 1.2
2016-May-19 12:34N 38°31' W 009°28'5 4.4
2016-May-19 11:31N 38°30' W 009°22'2 1.7
2016-May-19 10:31N 38°31' W 009°24'2 1.9
2016-May-19 09:31N 38°32' W 009°26'2 2.3
2016-May-19 08:33N 38°33' W 009°29'6 6.3
2016-May-19 07:33N 38°28' W 009°33'2 2.4
2016-May-19 06:33N 38°30' W 009°33'3 2.8
2016-May-19 05:33N 38°33' W 009°31'3 2.7
2016-May-19 04:33N 38°33' W 009°28'7 7.3
2016-May-19 03:33N 38°29' W 009°21'1 1.0
2016-May-19 02:33N 38°29' W 009°22'2 1.6
2016-May-19 01:33N 38°30' W 009°24'2 1.5
2016-May-19 00:33N 38°31' W 009°25'3 2.9
2016-May-18 23:33N 38°30' W 009°29'5 5.3
2016-May-18 22:33N 38°25' W 009°32'3 2.6
2016-May-18 21:31N 38°28' W 009°32'3 2.7
2016-May-18 20:33N 38°30' W 009°31'4 4.5
2016-May-18 19:33N 38°28' W 009°26'  

Dump ship's entire track history